New Orleans, LA (70118)

9:43 PM CDT on August 30, 2016 (GMT -0500)
| | Change Station
Active Advisory: Coastal Flood Watch

Elev -9999 ft 0.00 °N, 0.00 °E | Updated

Partly Cloudy
Partly Cloudy
83 °F
Feels Like 90 °F
N
3
Wind Variable Wind from NE
Gusts mph

Today
High -- | Low -- °F
--% Chance of Precip.
Yesterday
High -- | Low -- °F
Precip. -- in
Pressure 29.88 in
Visibility 10.0 miles
Clouds Clear
Heat Index 90 °F
Dew Point 75 °F
Humidity 79%
Rainfall --
Snow Depth Not available.
6:36 AM 7:24 PM
Waning Crescent, 2% visible
METAR KNEW 310153Z AUTO 11007KT 10SM CLR 30/24 A2989 RMK AO2 SLP117 T03000239
Pressure 29.88 in
Visibility 10.0 miles
Clouds Clear
Heat Index 90 °F
Dew Point 75 °F
Humidity 79%
Rainfall --
Snow Depth Not available.
6:36 AM 7:24 PM
Waning Crescent, 2% visible
METAR KNEW 310153Z AUTO 11007KT 10SM CLR 30/24 A2989 RMK AO2 SLP117 T03000239

10-Day Weather Forecast

Almanac

Astronomy

Aug. 30, 2016 Rise Set
Actual Time
Civil Twilight
Nautical Twilight
Astronomical Twilight
Moon
Length of Visible Light
Length of Day
Tomorrow will be .
, % of the Moon is Illuminated

Today's Extremes

State Highs State Lows

Community

WunderPhotos

Upload Photos

1,936,002 photos uploaded!

WunderBlog® & News

Nearby

Air Quality

  Air Quality AQ Index Pollutant
Not available.

Snow Depth

Station Depth Elevation

Earthquake Activity

City Distance Mag. Time & Date
Minimum magnitude displayed is 2.5.

Coastal Water Temperatures

Place Temperature

Stations

Nearby Weather Stations

Station Location Temp. Windchill Dew Point Humidity Wind Precip. Elev Updated Type
                   

Watches & Warnings

Coastal Flood Watch
Issued: 3:37 PM CDT Aug. 30, 2016 – National Weather Service

... Coastal Flood Watch remains in effect from 7 PM CDT this
evening through Thursday morning...

* coastal flooding... tides possibly 2 feet or higher above normal

* timing... tonight through Thursday morning

* impacts... tides up to 2 feet above normal will lead to
inundation of low lying coastal roadways and areas not
typically subject to coastal flooding during high tides
outside of protection levees.

Precautionary/preparedness actions...

A coastal Flood Watch means that conditions favorable for
flooding are expected to develop. Coastal residents should be
alert for later statements or warnings... and take action to
protect property.